首页
METAR-TAF:

METAR-TAF

机场 :

Eppley Airfield

奥马哈, 內布拉斯加州, 美国

纬度: 41-18-37N, 经度: 095-53-57W, 海拔: 299米

当前天气观测

该预报发布于55分钟前的03:52 UTC
风速10节,风向西北
温度 9°C
湿度 81%
气压 1008 hPa
能見度: 16.1公里
天空无云

METAR: KOMA 190352Z 32010KT 10SM CLR 09/06 A2976 RMK AO2 SLP081 T00940056 $

时间: 22:47 (04:47 UTC)

预报

该预报发布于5小时和23分钟前的23:24 UTC
预报有效从19日的 00点(UTC)到 19日的 24点(UTC)
风速15节,风向西北
能見度: 10公里
散云层高于8000英尺
从 19日的 1800点(UTC)
风速7节,风向北转西北
能見度: 10公里
多云层高于25000英尺

TAF: KOMA 182324Z 1900/1924 32015KT P6SM SCT080 FM191800 34007KT P6SM BKN250

超过4000个机场的气象观测和天气预报(METAR&TAF报告)。

可查询的气象台以黄色和红色小点在地图上表示。

将鼠标移到小点上方,可查看气象台名称。

然后点击查看天气观测和预报。

如需切换地图:点击带黑十字的绿色按钮放大地图;点击带横线的绿色按钮缩小地图;或者点击绿色箭头查看邻近地区的地图。


METAR-TAF: